createdAt,value
2018-12-25T00:00:40.882Z,74.47
2018-12-25T00:01:40.895Z,74.94
2018-12-25T00:02:40.910Z,75.23
2018-12-25T00:03:40.923Z,75.23
2018-12-25T00:04:40.935Z,75.04
2018-12-25T00:05:40.945Z,74.94
2018-12-25T00:06:40.963Z,75.04
2018-12-25T00:08:40.991Z,75.32
2018-12-25T00:10:41.053Z,76.08
2018-12-25T00:11:41.030Z,74.75
2018-12-25T00:12:41.120Z,75.45
2018-12-25T00:14:02.072Z,75.26
2018-12-25T00:14:41.084Z,74.79
2018-12-25T00:15:41.103Z,74.60
2018-12-25T00:16:41.107Z,74.41
2018-12-25T00:17:41.129Z,74.41
2018-12-25T00:18:41.132Z,74.51
2018-12-25T00:19:41.165Z,74.60
2018-12-25T00:20:41.161Z,74.75
2018-12-25T00:21:41.171Z,74.94
2018-12-25T00:22:41.194Z,75.32
2018-12-25T00:23:41.209Z,75.23
2018-12-25T00:24:41.228Z,75.79
2018-12-25T00:25:41.225Z,75.36
2018-12-25T00:26:41.260Z,75.17
2018-12-25T00:27:41.255Z,75.17
2018-12-25T00:28:41.271Z,74.69
2018-12-25T00:30:02.295Z,74.79
2018-12-25T00:30:41.308Z,74.69
2018-12-25T00:31:41.336Z,74.98
2018-12-25T00:32:41.327Z,75.17
2018-12-25T00:33:41.369Z,74.94
2018-12-25T00:34:41.365Z,75.23
2018-12-25T00:35:41.365Z,75.23
2018-12-25T00:36:41.384Z,75.32
2018-12-25T00:37:41.458Z,75.99
2018-12-25T00:38:41.410Z,75.79
2018-12-25T00:39:41.461Z,75.04
2018-12-25T00:40:41.439Z,75.32
2018-12-25T00:41:41.457Z,75.23
2018-12-25T00:42:41.471Z,75.23
2018-12-25T00:43:41.469Z,75.13
2018-12-25T00:44:41.511Z,75.04
2018-12-25T00:45:41.611Z,74.66
2018-12-25T00:46:41.545Z,76.18
2018-12-25T00:47:41.536Z,76.46
2018-12-25T00:48:41.540Z,76.46
2018-12-25T00:49:41.552Z,75.89
2018-12-25T00:50:41.569Z,75.79
2018-12-25T00:51:41.591Z,76.08
2018-12-25T00:52:41.609Z,76.18
2018-12-25T00:53:41.625Z,75.99
2018-12-25T00:54:41.622Z,74.66
2018-12-25T00:55:41.642Z,75.23
2018-12-25T00:56:41.663Z,75.13
2018-12-25T00:57:41.781Z,75.23
2018-12-25T00:58:41.671Z,75.23
2018-12-25T00:59:41.707Z,74.94
2018-12-25T01:00:41.703Z,75.89
2018-12-25T01:01:41.756Z,76.18
2018-12-25T01:02:41.744Z,75.89
2018-12-25T01:03:41.742Z,76.75
2018-12-25T01:04:41.754Z,76.46
2018-12-25T01:05:41.783Z,75.79
2018-12-25T01:06:41.784Z,75.99
2018-12-25T01:07:41.797Z,76.52
2018-12-25T01:08:41.804Z,76.99
2018-12-25T01:09:41.826Z,76.65
2018-12-25T01:10:41.840Z,76.37
2018-12-25T01:11:41.854Z,76.32
2018-12-25T01:12:41.897Z,77.09
2018-12-25T01:14:41.902Z,78.23
2018-12-25T01:15:41.905Z,78.03
2018-12-25T01:16:41.911Z,77.75
2018-12-25T01:17:41.948Z,77.56
2018-12-25T01:18:41.949Z,77.12
2018-12-25T01:19:41.960Z,76.80
2018-12-25T01:20:41.967Z,77.28
2018-12-25T01:21:41.986Z,78.47
2018-12-25T01:22:42.000Z,78.99
2018-12-25T01:23:42.007Z,78.80
2018-12-25T01:24:42.024Z,78.80
2018-12-25T01:25:42.043Z,78.61
2018-12-25T01:26:42.050Z,78.51
2018-12-25T01:27:42.068Z,78.03
2018-12-25T01:28:42.075Z,78.23
2018-12-25T01:29:42.112Z,77.89
2018-12-25T01:30:42.119Z,77.03
2018-12-25T01:31:42.221Z,76.93
2018-12-25T01:32:42.139Z,76.93
2018-12-25T01:33:42.141Z,77.12
2018-12-25T01:34:42.166Z,77.12
2018-12-25T01:35:42.192Z,77.03
2018-12-25T01:36:42.180Z,76.71
2018-12-25T01:37:42.197Z,77.47
2018-12-25T01:38:42.213Z,77.84
2018-12-25T01:39:42.238Z,77.75
2018-12-25T01:40:42.235Z,78.03
2018-12-25T01:41:42.271Z,78.13
2018-12-25T01:42:42.369Z,77.98
2018-12-25T01:43:42.290Z,77.41
2018-12-25T01:44:42.295Z,77.03
2018-12-25T01:45:42.315Z,77.22
2018-12-25T01:46:42.324Z,76.93
2018-12-25T01:47:42.339Z,77.18
2018-12-25T01:49:42.371Z,77.47
2018-12-25T01:50:42.382Z,77.28
2018-12-25T01:51:42.400Z,77.47
2018-12-25T01:52:42.399Z,76.90
2018-12-25T01:53:42.419Z,76.99
2018-12-25T01:54:42.431Z,77.18
2018-12-25T01:55:42.438Z,77.09
2018-12-25T01:56:42.471Z,77.84
2018-12-25T01:57:42.523Z,77.22
2018-12-25T01:58:42.505Z,76.93
2018-12-25T01:59:42.596Z,76.61
2018-12-25T02:00:42.502Z,77.09
2018-12-25T02:01:42.532Z,76.80
2018-12-25T02:02:42.540Z,76.04
2018-12-25T02:03:42.553Z,76.14
2018-12-25T02:04:42.556Z,76.32
2018-12-25T02:05:42.569Z,76.14
2018-12-25T02:06:42.601Z,76.42
2018-12-25T02:07:42.605Z,76.23
2018-12-25T02:08:42.607Z,75.67
2018-12-25T02:09:42.616Z,75.76
2018-12-25T02:10:42.666Z,76.04
2018-12-25T02:11:42.650Z,76.61
2018-12-25T02:12:42.681Z,76.23
2018-12-25T02:13:42.687Z,76.23
2018-12-25T02:14:42.733Z,75.85
2018-12-25T02:15:42.703Z,75.95
2018-12-25T02:16:42.759Z,76.23
2018-12-25T02:18:42.759Z,76.90
2018-12-25T02:19:42.752Z,76.80
2018-12-25T02:20:42.770Z,76.14
2018-12-25T02:21:42.769Z,75.95
2018-12-25T02:22:42.787Z,75.67
2018-12-25T02:23:42.809Z,75.57
2018-12-25T02:24:42.817Z,75.67
2018-12-25T02:25:42.836Z,75.67
2018-12-25T02:26:42.839Z,75.67
2018-12-25T02:27:42.852Z,75.85
2018-12-25T02:28:42.864Z,75.57
2018-12-25T02:29:42.884Z,75.76
2018-12-25T02:30:42.902Z,76.23
2018-12-25T02:31:42.916Z,76.23
2018-12-25T02:32:42.915Z,76.42
2018-12-25T02:33:42.929Z,76.14
2018-12-25T02:34:42.951Z,76.23
2018-12-25T02:35:42.960Z,76.32
2018-12-25T02:36:42.972Z,76.04
2018-12-25T02:37:42.990Z,75.47
2018-12-25T02:38:43.009Z,75.95
2018-12-25T02:39:43.016Z,76.32
2018-12-25T02:40:43.101Z,76.52
2018-12-25T02:41:43.029Z,77.09
2018-12-25T02:42:43.040Z,77.09
2018-12-25T02:43:43.061Z,77.09
2018-12-25T02:44:43.075Z,77.09
2018-12-25T02:45:43.082Z,77.75
2018-12-25T02:46:43.099Z,77.56
2018-12-25T02:47:43.108Z,77.18
2018-12-25T02:48:43.153Z,76.61
2018-12-25T02:49:50.268Z,76.61
2018-12-25T02:50:43.149Z,77.28
2018-12-25T02:51:43.156Z,77.71
2018-12-25T02:52:43.168Z,78.28
2018-12-25T02:53:43.185Z,78.38
2018-12-25T02:54:43.194Z,77.56
2018-12-25T02:55:43.223Z,77.09
2018-12-25T02:56:43.221Z,76.71
2018-12-25T02:57:43.229Z,76.80
2018-12-25T02:58:43.244Z,76.42
2018-12-25T02:59:43.260Z,76.71
2018-12-25T03:00:43.269Z,76.61
2018-12-25T03:01:43.290Z,76.14
2018-12-25T03:02:43.314Z,76.14
2018-12-25T03:03:43.324Z,76.23
2018-12-25T03:04:43.387Z,76.32
2018-12-25T03:05:43.392Z,76.32
2018-12-25T03:06:43.356Z,76.52
2018-12-25T03:07:43.446Z,76.99
2018-12-25T03:08:43.411Z,76.90
2018-12-25T03:09:43.414Z,77.14
2018-12-25T03:10:43.425Z,78.09
2018-12-25T03:11:43.412Z,78.00
2018-12-25T03:12:43.465Z,77.75
2018-12-25T03:14:43.461Z,77.28
2018-12-25T03:15:43.483Z,77.18
2018-12-25T03:16:43.528Z,77.62
2018-12-25T03:17:43.515Z,77.94
2018-12-25T03:19:43.519Z,77.09
2018-12-25T03:20:43.527Z,77.09
2018-12-25T03:21:43.540Z,77.28
2018-12-25T03:22:43.575Z,77.18
2018-12-25T03:23:43.583Z,77.09
2018-12-25T03:24:43.578Z,76.52
2018-12-25T03:25:43.584Z,77.37
2018-12-25T03:26:43.598Z,77.28
2018-12-25T03:27:43.619Z,77.37
2018-12-25T03:28:43.645Z,77.47
2018-12-25T03:31:04.800Z,77.18
2018-12-25T03:31:43.683Z,77.09
2018-12-25T03:32:43.691Z,76.52
2018-12-25T03:33:43.760Z,76.80
2018-12-25T03:34:43.722Z,76.86
2018-12-25T03:35:43.795Z,76.95
2018-12-25T03:36:43.748Z,77.52
2018-12-25T03:37:43.741Z,77.24
2018-12-25T03:38:43.775Z,76.95
2018-12-25T03:39:43.767Z,76.95
2018-12-25T03:40:43.813Z,77.33
2018-12-25T03:41:43.797Z,76.90
2018-12-25T03:42:43.805Z,76.86
2018-12-25T03:43:43.816Z,76.86
2018-12-25T03:44:43.879Z,76.95
2018-12-25T03:45:43.851Z,77.71
2018-12-25T03:46:43.862Z,77.33
2018-12-25T03:47:43.866Z,77.90
2018-12-25T03:48:43.875Z,77.81
2018-12-25T03:49:43.893Z,78.19
2018-12-25T03:50:43.926Z,78.28
2018-12-25T03:51:43.925Z,77.71
2018-12-25T03:53:43.948Z,77.05
2018-12-25T03:54:43.960Z,76.86
2018-12-25T03:55:43.968Z,76.86
2018-12-25T03:56:43.985Z,76.48
2018-12-25T03:57:43.993Z,76.76
2018-12-25T03:59:44.024Z,76.76
2018-12-25T04:00:44.036Z,76.95
2018-12-25T04:01:44.045Z,76.57
2018-12-25T04:02:44.076Z,77.05
2018-12-25T04:03:44.067Z,77.33
2018-12-25T04:04:44.078Z,77.43
2018-12-25T04:05:44.087Z,77.43
2018-12-25T04:06:44.107Z,77.62
2018-12-25T04:07:44.121Z,76.95
2018-12-25T04:08:44.132Z,77.24
2018-12-25T04:09:44.140Z,77.24
2018-12-25T04:10:44.151Z,76.86
2018-12-25T04:11:44.161Z,77.05
2018-12-25T04:12:44.176Z,76.86
2018-12-25T04:13:44.191Z,76.86
2018-12-25T04:14:44.202Z,77.05
2018-12-25T04:15:44.229Z,76.86
2018-12-25T04:16:44.231Z,77.24
2018-12-25T04:17:44.248Z,77.71
2018-12-25T04:18:44.252Z,77.90
2018-12-25T04:19:44.282Z,77.90
2018-12-25T04:20:44.282Z,77.33
2018-12-25T04:21:44.285Z,77.52
2018-12-25T04:23:44.331Z,77.62
2018-12-25T04:24:44.336Z,77.43
2018-12-25T04:25:44.335Z,77.52
2018-12-25T04:26:44.351Z,76.95
2018-12-25T04:27:44.358Z,77.05
2018-12-25T04:28:44.374Z,76.76
2018-12-25T04:29:44.393Z,76.86
2018-12-25T04:30:44.397Z,77.24
2018-12-25T04:31:44.435Z,76.95
2018-12-25T04:33:44.445Z,76.57
2018-12-25T04:34:44.488Z,77.14
2018-12-25T04:35:44.471Z,77.33
2018-12-25T04:36:44.481Z,77.05
2018-12-25T04:37:44.565Z,76.76
2018-12-25T04:38:44.508Z,76.20
2018-12-25T04:39:44.512Z,76.39
2018-12-25T04:40:44.543Z,77.05
2018-12-25T04:41:44.550Z,77.14
2018-12-25T04:42:44.553Z,76.76
2018-12-25T04:43:44.559Z,77.05
2018-12-25T04:44:44.572Z,77.24
2018-12-25T04:45:44.596Z,77.52
2018-12-25T04:46:44.757Z,76.95
2018-12-25T04:47:44.609Z,77.33
2018-12-25T04:48:44.623Z,78.34
2018-12-25T04:49:44.688Z,78.47
2018-12-25T04:50:44.651Z,78.19
2018-12-25T04:51:44.660Z,78.34
2018-12-25T04:52:44.746Z,78.19
2018-12-25T04:53:44.700Z,78.00
2018-12-25T04:54:44.712Z,77.90
2018-12-25T04:55:44.710Z,77.43
2018-12-25T04:56:44.725Z,78.19
2018-12-25T04:57:44.743Z,78.34
2018-12-25T04:58:44.742Z,78.34
2018-12-25T04:59:44.762Z,77.05
2018-12-25T05:00:44.767Z,77.71
2018-12-25T05:01:44.781Z,77.81
2018-12-25T05:02:44.789Z,77.14
2018-12-25T05:03:44.833Z,77.24
2018-12-25T05:04:44.821Z,77.43
2018-12-25T05:05:44.826Z,77.33
2018-12-25T05:06:44.839Z,77.14
2018-12-25T05:07:44.866Z,77.24
2018-12-25T05:08:44.871Z,77.24
2018-12-25T05:09:44.893Z,76.76
2018-12-25T05:10:44.889Z,76.95
2018-12-25T05:11:44.937Z,77.01
2018-12-25T05:12:44.933Z,77.96
2018-12-25T05:13:44.921Z,78.15
2018-12-25T05:14:44.938Z,78.24
2018-12-25T05:16:44.959Z,78.15
2018-12-25T05:17:44.973Z,78.24
2018-12-25T05:18:44.983Z,78.34
2018-12-25T05:19:44.999Z,78.15
2018-12-25T05:20:45.010Z,77.67
2018-12-25T05:21:45.025Z,78.24
2018-12-25T05:22:45.031Z,77.58
2018-12-25T05:23:45.050Z,77.11
2018-12-25T05:24:45.056Z,76.86
2018-12-25T05:25:45.079Z,76.82
2018-12-25T05:26:45.133Z,77.11
2018-12-25T05:27:45.123Z,77.01
2018-12-25T05:28:45.108Z,76.54
2018-12-25T05:29:45.120Z,76.57
2018-12-25T05:30:45.200Z,76.15
2018-12-25T05:31:45.154Z,76.34
2018-12-25T05:32:45.160Z,76.34
2018-12-25T05:33:45.163Z,75.87
2018-12-25T05:34:45.178Z,76.73
2018-12-25T05:35:45.193Z,76.15
2018-12-25T05:36:45.204Z,76.25
2018-12-25T05:37:45.239Z,76.25
2018-12-25T05:38:45.235Z,75.78
2018-12-25T05:39:45.237Z,76.34
2018-12-25T05:40:45.313Z,76.06
2018-12-25T05:41:45.287Z,76.34
2018-12-25T05:42:45.287Z,76.25
2018-12-25T05:43:45.346Z,76.25
2018-12-25T05:44:45.306Z,76.25
2018-12-25T05:45:45.315Z,75.87
2018-12-25T05:46:45.330Z,76.25
2018-12-25T05:47:45.346Z,77.01
2018-12-25T05:48:45.346Z,76.92
2018-12-25T05:49:45.379Z,77.39
2018-12-25T05:50:46.804Z,77.11
2018-12-25T05:51:45.399Z,77.48
2018-12-25T05:53:45.412Z,76.63
2018-12-25T05:54:45.416Z,76.25
2018-12-25T05:55:45.428Z,76.54
2018-12-25T05:56:45.488Z,76.63
2018-12-25T05:57:45.480Z,76.25
2018-12-25T05:58:45.476Z,75.96
2018-12-25T05:59:45.484Z,76.06
2018-12-25T06:00:45.504Z,76.25
2018-12-25T06:01:45.496Z,76.25
2018-12-25T06:02:45.513Z,76.15
2018-12-25T06:03:45.521Z,75.96
2018-12-25T06:04:45.541Z,76.73
2018-12-25T06:05:45.546Z,76.92
2018-12-25T06:06:45.561Z,77.01
2018-12-25T06:07:45.585Z,77.01
2018-12-25T06:08:45.581Z,76.92
2018-12-25T06:09:45.594Z,76.92
2018-12-25T06:10:45.618Z,76.63
2018-12-25T06:11:45.629Z,76.25
2018-12-25T06:12:45.635Z,76.44
2018-12-25T06:13:45.679Z,76.54
2018-12-25T06:14:45.656Z,76.63
2018-12-25T06:15:45.677Z,77.01
2018-12-25T06:16:45.675Z,77.48
2018-12-25T06:17:45.734Z,77.29
2018-12-25T06:18:45.705Z,77.39
2018-12-25T06:19:45.716Z,77.58
2018-12-25T06:20:45.724Z,77.48
2018-12-25T06:21:45.737Z,77.86
2018-12-25T06:22:45.820Z,77.39
2018-12-25T06:23:45.765Z,76.73
2018-12-25T06:24:45.768Z,76.92
2018-12-25T06:25:45.784Z,76.82
2018-12-25T06:26:45.797Z,77.39
2018-12-25T06:27:45.806Z,77.58
2018-12-25T06:28:45.943Z,77.67
2018-12-25T06:29:45.832Z,78.34
2018-12-25T06:30:45.860Z,78.34
2018-12-25T06:31:45.861Z,77.86
2018-12-25T06:32:45.877Z,78.24
2018-12-25T06:33:45.894Z,78.72
2018-12-25T06:34:45.898Z,78.24
2018-12-25T06:35:45.901Z,78.15
2018-12-25T06:36:45.936Z,78.15
2018-12-25T06:37:45.928Z,78.05
2018-12-25T06:38:45.936Z,77.96
2018-12-25T06:39:45.947Z,78.43
2018-12-25T06:40:45.969Z,78.34
2018-12-25T06:41:46.005Z,78.34
2018-12-25T06:42:45.992Z,78.15
2018-12-25T06:43:45.995Z,78.15
2018-12-25T06:44:46.008Z,78.34
2018-12-25T06:45:46.120Z,78.72
2018-12-25T06:46:46.036Z,78.24
2018-12-25T06:47:46.043Z,78.53
2018-12-25T06:49:46.074Z,78.34
2018-12-25T06:51:46.101Z,78.34
2018-12-25T06:52:46.103Z,77.77
2018-12-25T06:53:46.121Z,77.58
2018-12-25T06:54:46.130Z,77.77
2018-12-25T06:56:46.155Z,78.20
2018-12-25T06:57:46.162Z,79.63
2018-12-25T06:58:46.174Z,79.53
2018-12-25T06:59:46.194Z,78.53
2018-12-25T07:00:46.196Z,78.05
2018-12-25T07:01:46.212Z,78.05
2018-12-25T07:02:46.281Z,77.86
2018-12-25T07:03:46.246Z,78.43
2018-12-25T07:04:46.249Z,77.96
2018-12-25T07:05:46.263Z,78.34
2018-12-25T07:06:46.266Z,78.15
2018-12-25T07:08:46.293Z,78.05
2018-12-25T07:09:46.303Z,77.77
2018-12-25T07:10:46.360Z,77.67
2018-12-25T07:11:46.329Z,77.29
2018-12-25T07:12:46.345Z,77.01
2018-12-25T07:13:46.363Z,77.20
2018-12-25T07:14:46.376Z,77.20
2018-12-25T07:15:46.376Z,77.48
2018-12-25T07:16:46.380Z,77.01
2018-12-25T07:17:46.397Z,77.67
2018-12-25T07:18:46.408Z,78.34
2018-12-25T07:19:46.430Z,77.67
2018-12-25T07:20:46.437Z,77.86
2018-12-25T07:21:46.442Z,77.96
2018-12-25T07:22:46.450Z,78.24
2018-12-25T07:23:46.473Z,77.77
2018-12-25T07:24:46.489Z,78.11
2018-12-25T07:25:46.491Z,78.39
2018-12-25T07:26:46.502Z,77.77
2018-12-25T07:27:46.515Z,77.58
2018-12-25T07:28:46.522Z,77.11
2018-12-25T07:29:46.534Z,77.29
2018-12-25T07:31:46.555Z,77.29
2018-12-25T07:32:46.603Z,77.29
2018-12-25T07:34:46.598Z,77.11
2018-12-25T07:35:46.611Z,77.11
2018-12-25T07:36:46.667Z,76.82
2018-12-25T07:37:46.633Z,76.92
2018-12-25T07:38:46.662Z,77.29
2018-12-25T07:39:46.652Z,77.39
2018-12-25T07:40:46.658Z,77.86
2018-12-25T07:41:46.693Z,77.39
2018-12-25T07:42:46.683Z,77.48
2018-12-25T07:43:46.692Z,77.77
2018-12-25T07:44:46.719Z,77.58
2018-12-25T07:45:46.723Z,77.39
2018-12-25T07:46:46.739Z,76.92
2018-12-25T07:47:46.750Z,76.73
2018-12-25T07:48:46.756Z,77.11
2018-12-25T07:49:46.870Z,77.67
2018-12-25T07:50:46.788Z,77.67
2018-12-25T07:51:46.844Z,78.05
2018-12-25T07:52:46.808Z,77.77
2018-12-25T07:53:46.881Z,77.29
2018-12-25T07:54:46.824Z,77.39
2018-12-25T07:55:46.856Z,77.77
2018-12-25T07:56:46.844Z,77.64
2018-12-25T07:57:46.865Z,78.15
2018-12-25T07:58:46.879Z,77.67
2018-12-25T07:59:46.877Z,78.49
2018-12-25T08:00:46.895Z,78.77
2018-12-25T08:01:46.916Z,78.43
2018-12-25T08:02:46.919Z,78.24
2018-12-25T08:03:46.931Z,78.15
2018-12-25T08:04:46.944Z,78.05
2018-12-25T08:05:46.955Z,78.15
2018-12-25T08:06:46.965Z,78.30
2018-12-25T08:07:46.970Z,78.62
2018-12-25T08:08:47.046Z,78.34
2018-12-25T08:09:47.027Z,78.53
2018-12-25T08:10:47.015Z,78.15
2018-12-25T08:11:47.022Z,77.86
2018-12-25T08:12:47.026Z,78.05
2018-12-25T08:13:47.041Z,77.92
2018-12-25T08:14:47.052Z,78.24
2018-12-25T08:15:47.068Z,78.15
2018-12-25T08:16:47.074Z,77.77
2018-12-25T08:17:47.083Z,78.24
2018-12-25T08:18:47.096Z,77.96
2018-12-25T08:19:47.118Z,78.15
2018-12-25T08:20:47.125Z,77.86
2018-12-25T08:21:47.151Z,78.05
2018-12-25T08:22:47.152Z,77.67
2018-12-25T08:23:47.162Z,78.15
2018-12-25T08:24:47.192Z,77.86
2018-12-25T08:25:47.225Z,78.15
2018-12-25T08:26:47.190Z,78.24
2018-12-25T08:27:47.214Z,77.77
2018-12-25T08:28:47.224Z,78.15
2018-12-25T08:29:47.227Z,78.05
2018-12-25T08:30:47.243Z,77.77
2018-12-25T08:31:47.247Z,78.15
2018-12-25T08:32:47.255Z,77.39
2018-12-25T08:33:47.297Z,77.96
2018-12-25T08:34:47.295Z,78.34
2018-12-25T08:36:47.420Z,77.77
2018-12-25T08:37:47.314Z,77.58
2018-12-25T08:38:47.337Z,77.39
2018-12-25T08:39:47.339Z,77.48
2018-12-25T08:40:47.373Z,76.67
2018-12-25T08:42:47.410Z,77.01
2018-12-25T08:44:47.410Z,77.52
2018-12-25T08:45:47.413Z,77.52
2018-12-25T08:46:47.425Z,77.11
2018-12-25T08:47:47.441Z,77.14
2018-12-25T08:48:47.466Z,76.95
2018-12-25T08:49:47.464Z,77.48
2018-12-25T08:50:47.468Z,77.43
2018-12-25T08:51:47.497Z,77.39
2018-12-25T08:52:47.504Z,77.67
2018-12-25T08:53:47.515Z,77.77
2018-12-25T08:54:47.517Z,78.24
2018-12-25T08:55:47.564Z,78.05
2018-12-25T08:56:47.544Z,78.72
2018-12-25T08:57:47.559Z,78.24
2018-12-25T08:58:47.565Z,78.34
2018-12-25T08:59:47.597Z,78.19
2018-12-25T09:00:47.595Z,77.43
2018-12-25T09:01:47.606Z,77.62
2018-12-25T09:02:47.609Z,77.43
2018-12-25T09:03:47.722Z,77.24
2018-12-25T09:04:47.634Z,76.95
2018-12-25T09:05:47.647Z,77.43
2018-12-25T09:06:47.695Z,76.86
2018-12-25T09:07:47.677Z,77.05
2018-12-25T09:08:47.715Z,77.24
2018-12-25T09:09:47.700Z,76.86
2018-12-25T09:10:47.737Z,77.14
2018-12-25T09:12:08.808Z,76.57
2018-12-25T09:12:47.863Z,76.86
2018-12-25T09:13:47.743Z,76.86
2018-12-25T09:14:47.757Z,76.57
2018-12-25T09:15:47.767Z,76.71
2018-12-25T09:16:47.849Z,76.48
2018-12-25T09:17:47.791Z,77.09
2018-12-25T09:18:47.814Z,76.61
2018-12-25T09:19:47.825Z,76.61
2018-12-25T09:20:47.839Z,76.71
2018-12-25T09:21:47.853Z,76.80
2018-12-25T09:22:47.854Z,76.80
2018-12-25T09:23:47.885Z,77.09
2018-12-25T09:24:47.886Z,77.09
2018-12-25T09:25:47.908Z,76.80
2018-12-25T09:26:47.917Z,76.42
2018-12-25T09:27:47.918Z,76.90
2018-12-25T09:28:47.937Z,77.18
2018-12-25T09:29:47.973Z,77.09
2018-12-25T09:30:48.037Z,76.42
2018-12-25T09:31:47.970Z,76.14
2018-12-25T09:32:47.987Z,76.42
2018-12-25T09:33:48.056Z,76.37
2018-12-25T09:34:48.136Z,75.79
2018-12-25T09:35:48.027Z,75.04
2018-12-25T09:36:48.036Z,75.00
2018-12-25T09:37:48.046Z,74.66
2018-12-25T09:39:48.092Z,75.13
2018-12-25T09:40:48.084Z,75.23
2018-12-25T09:41:48.111Z,73.80
2018-12-25T09:42:48.121Z,74.18
2018-12-25T09:44:48.200Z,73.93
2018-12-25T09:45:48.168Z,73.36
2018-12-25T09:46:48.171Z,73.36
2018-12-25T09:47:48.211Z,72.89
2018-12-25T09:48:48.200Z,72.85
2018-12-25T09:49:48.213Z,73.74
2018-12-25T09:50:48.241Z,73.46
2018-12-25T09:51:54.489Z,73.08
2018-12-25T09:52:48.258Z,72.99
2018-12-25T09:53:48.280Z,73.27
2018-12-25T09:55:48.296Z,71.84
2018-12-25T09:56:48.345Z,71.75
2018-12-25T09:57:48.438Z,71.12
2018-12-25T09:58:48.376Z,71.46
2018-12-25T09:59:48.357Z,70.99
2018-12-25T10:00:48.374Z,71.27
2018-12-25T10:01:48.445Z,70.93
2018-12-25T10:02:48.404Z,70.74
2018-12-25T10:03:48.416Z,70.36
2018-12-25T10:04:48.433Z,69.88
2018-12-25T10:05:48.443Z,69.60
2018-12-25T10:06:48.456Z,70.17
2018-12-25T10:07:48.477Z,70.74
2018-12-25T10:08:48.484Z,70.74
2018-12-25T10:09:48.516Z,69.98
2018-12-25T10:10:48.518Z,69.82
2018-12-25T10:11:48.557Z,69.44
2018-12-25T10:12:48.542Z,69.63
2018-12-25T10:13:48.570Z,69.63
2018-12-25T10:14:48.738Z,69.35
2018-12-25T10:15:48.588Z,69.54
2018-12-25T10:16:49.843Z,69.50
2018-12-25T10:17:48.637Z,69.60
2018-12-25T10:18:48.696Z,69.69
2018-12-25T10:19:48.681Z,69.31
2018-12-25T10:20:48.687Z,69.54
2018-12-25T10:21:48.727Z,69.63
2018-12-25T10:22:48.698Z,69.06
2018-12-25T10:23:48.729Z,68.77
2018-12-25T10:24:48.723Z,69.15
2018-12-25T10:25:48.733Z,68.33
2018-12-25T10:26:48.779Z,68.52
2018-12-25T10:28:48.784Z,68.40
2018-12-25T10:29:48.882Z,68.68
2018-12-25T10:30:48.825Z,68.43
2018-12-25T10:31:48.948Z,68.40
2018-12-25T10:32:48.972Z,68.87
2018-12-25T10:33:48.854Z,68.96
2018-12-25T10:34:48.878Z,68.71
2018-12-25T10:35:48.900Z,68.15
2018-12-25T10:36:48.903Z,68.33
2018-12-25T10:37:48.979Z,68.15
2018-12-25T10:38:48.964Z,68.33
2018-12-25T10:40:48.995Z,67.95
2018-12-25T10:41:48.978Z,67.38
2018-12-25T10:42:48.998Z,67.38
2018-12-25T10:43:49.009Z,67.76
2018-12-25T10:44:49.038Z,67.86
2018-12-25T10:45:49.047Z,67.38
2018-12-25T10:46:49.079Z,67.57
2018-12-25T10:47:49.071Z,67.57
2018-12-25T10:48:49.090Z,67.57
2018-12-25T10:49:49.110Z,67.47
2018-12-25T10:50:49.122Z,66.91
2018-12-25T10:51:49.133Z,66.75
2018-12-25T10:52:49.157Z,66.37
2018-12-25T10:53:49.168Z,66.27
2018-12-25T10:54:49.190Z,65.80
2018-12-25T10:55:49.201Z,66.27
2018-12-25T10:56:49.211Z,65.80
2018-12-25T10:57:49.223Z,65.61
2018-12-25T10:58:49.263Z,65.80
2018-12-25T10:59:49.366Z,65.32
2018-12-25T11:00:49.274Z,65.51
2018-12-25T11:01:49.299Z,65.36
2018-12-25T11:02:49.309Z,64.37
2018-12-25T11:03:49.323Z,64.94
2018-12-25T11:04:49.474Z,64.56
2018-12-25T11:05:49.350Z,64.59
2018-12-25T11:06:49.377Z,64.21
2018-12-25T11:07:49.382Z,63.99
2018-12-25T11:09:49.421Z,63.64
2018-12-25T11:10:49.447Z,64.02
2018-12-25T11:12:49.467Z,62.81
2018-12-25T11:13:49.487Z,62.91
2018-12-25T11:14:49.533Z,62.72
2018-12-25T11:15:49.513Z,61.96
2018-12-25T11:16:49.585Z,61.76
2018-12-25T11:17:49.600Z,60.81
2018-12-25T11:18:49.594Z,61.10
2018-12-25T11:19:49.622Z,60.91
2018-12-25T11:20:49.611Z,61.10
2018-12-25T11:21:49.624Z,60.72
2018-12-25T11:22:49.632Z,60.94
2018-12-25T11:23:49.644Z,61.04
2018-12-25T11:24:49.668Z,60.36
2018-12-25T11:25:49.683Z,60.65
2018-12-25T11:26:49.694Z,61.04
2018-12-25T11:27:49.800Z,61.67
2018-12-25T11:28:49.733Z,59.95
2018-12-25T11:29:49.755Z,59.38
2018-12-25T11:30:49.782Z,58.84
2018-12-25T11:31:49.796Z,58.46
2018-12-25T11:32:49.800Z,58.26
2018-12-25T11:33:49.820Z,58.46
2018-12-25T11:35:49.852Z,58.46
2018-12-25T11:36:49.867Z,57.98
2018-12-25T11:37:49.890Z,58.43
2018-12-25T11:38:49.892Z,59.00
2018-12-25T11:39:49.915Z,59.19
2018-12-25T11:40:49.991Z,59.41
2018-12-25T11:41:49.958Z,59.31
2018-12-25T11:42:49.982Z,58.81
2018-12-25T11:43:49.970Z,59.19
2018-12-25T11:44:50.017Z,59.76
2018-12-25T11:45:50.009Z,59.28
2018-12-25T11:46:50.027Z,58.72
2018-12-25T11:47:50.047Z,58.33
2018-12-25T11:48:50.068Z,58.43
2018-12-25T11:49:50.091Z,58.81
2018-12-25T11:50:50.113Z,58.59
2018-12-25T11:51:50.120Z,58.78
2018-12-25T11:52:50.136Z,59.67
2018-12-25T11:53:50.152Z,58.11
2018-12-25T11:54:50.163Z,58.72
2018-12-25T11:55:50.204Z,58.40
2018-12-25T11:56:50.188Z,58.24
2018-12-25T11:57:50.208Z,58.40
2018-12-25T11:58:50.219Z,58.81
2018-12-25T11:59:50.251Z,58.91
2018-12-25T12:00:50.260Z,59.28
2018-12-25T12:01:50.269Z,59.28
2018-12-25T12:02:50.280Z,58.24
2018-12-25T12:05:50.350Z,58.02
2018-12-25T12:06:50.347Z,59.06
2018-12-25T12:07:50.369Z,58.81
2018-12-25T12:08:50.380Z,57.86
2018-12-25T12:09:50.396Z,58.04
2018-12-25T12:10:50.428Z,58.14
2018-12-25T12:11:50.433Z,58.30
2018-12-25T12:12:50.478Z,58.33
2018-12-25T12:13:50.479Z,58.52
2018-12-25T12:14:50.518Z,58.33
2018-12-25T12:15:50.496Z,58.14
2018-12-25T12:16:50.519Z,57.86
2018-12-25T12:17:50.533Z,57.76
2018-12-25T12:18:50.549Z,57.45
2018-12-25T12:19:50.612Z,57.82
2018-12-25T12:20:50.594Z,58.40
2018-12-25T12:21:50.599Z,58.50
2018-12-25T12:22:50.608Z,58.50
2018-12-25T12:23:50.626Z,58.30
2018-12-25T12:24:50.646Z,58.21
2018-12-25T12:25:50.661Z,57.92
2018-12-25T12:26:50.680Z,58.30
2018-12-25T12:27:50.729Z,58.87
2018-12-25T12:28:50.706Z,58.69
2018-12-25T12:29:50.732Z,58.30
2018-12-25T12:30:50.739Z,58.11
2018-12-25T12:31:50.753Z,58.40
2018-12-25T12:32:50.767Z,58.30
2018-12-25T12:33:50.792Z,58.50
2018-12-25T12:34:50.795Z,58.40
2018-12-25T12:35:50.814Z,58.02
2018-12-25T12:36:50.824Z,57.73
2018-12-25T12:37:50.852Z,58.21
2018-12-25T12:38:50.861Z,58.69
2018-12-25T12:39:50.890Z,58.59
2018-12-25T12:40:50.900Z,58.40
2018-12-25T12:41:50.917Z,58.59
2018-12-25T12:42:50.932Z,57.64
2018-12-25T12:43:50.943Z,57.92
2018-12-25T12:44:50.955Z,58.30
2018-12-25T12:46:50.997Z,58.87
2018-12-25T12:47:51.001Z,58.78
2018-12-25T12:48:51.023Z,58.40
2018-12-25T12:49:51.065Z,58.21
2018-12-25T12:50:51.048Z,58.59
2018-12-25T12:51:51.072Z,58.78
2018-12-25T12:52:51.077Z,59.35
2018-12-25T12:53:51.179Z,60.49
2018-12-25T12:54:51.127Z,59.92
2018-12-25T12:55:51.139Z,59.74
2018-12-25T12:56:51.143Z,60.30
2018-12-25T12:57:51.204Z,59.74
2018-12-25T12:58:51.169Z,59.23
2018-12-25T12:59:51.225Z,58.97
2018-12-25T13:00:51.201Z,58.69
2018-12-25T13:01:51.226Z,58.50
2018-12-25T13:02:51.248Z,58.30
2018-12-25T13:03:51.250Z,58.30
2018-12-25T13:04:51.276Z,57.92
2018-12-25T13:05:51.287Z,58.40
2018-12-25T13:06:51.299Z,58.11
2018-12-25T13:07:51.317Z,58.59
2018-12-25T13:08:51.333Z,57.92
2018-12-25T13:09:51.344Z,58.11
2018-12-25T13:10:51.418Z,57.45
2018-12-25T13:11:51.382Z,57.07
2018-12-25T13:12:51.424Z,57.07
2018-12-25T13:13:51.415Z,56.85
2018-12-25T13:14:51.428Z,56.78
2018-12-25T13:15:51.440Z,56.94
2018-12-25T13:16:51.468Z,57.32
2018-12-25T13:18:51.484Z,57.35
2018-12-25T13:19:51.504Z,57.60
2018-12-25T13:20:51.531Z,57.80
2018-12-25T13:21:51.544Z,57.23
2018-12-25T13:22:54.206Z,56.75
2018-12-25T13:23:51.563Z,56.94
2018-12-25T13:24:51.578Z,56.75
2018-12-25T13:25:51.610Z,57.23
2018-12-25T13:26:51.621Z,57.42
2018-12-25T13:27:51.700Z,57.99